sensor_id;sensor_type;location;lat;lon;timestamp;pressure;altitude;pressure_sealevel;temperature;humidity
71195;BME280;58908;51.426;7.714;2023-10-31T00:02:17;97662.09;;;14.32;100.00
71195;BME280;58908;51.426;7.714;2023-10-31T00:04:44;97672.78;;;14.15;100.00
71195;BME280;58908;51.426;7.714;2023-10-31T00:07:11;97678.63;;;14.18;100.00
71195;BME280;58908;51.426;7.714;2023-10-31T00:09:37;97682.91;;;14.11;100.00
71195;BME280;58908;51.426;7.714;2023-10-31T00:12:04;97691.63;;;14.04;100.00
71195;BME280;58908;51.426;7.714;2023-10-31T00:14:31;97710.97;;;13.63;100.00
71195;BME280;58908;51.426;7.714;2023-10-31T00:16:57;97724.72;;;13.41;100.00
71195;BME280;58908;51.426;7.714;2023-10-31T00:19:23;97723.16;;;13.56;100.00
71195;BME280;58908;51.426;7.714;2023-10-31T00:21:54;97729.34;;;13.39;100.00
71195;BME280;58908;51.426;7.714;2023-10-31T00:24:20;97733.88;;;13.29;100.00
71195;BME280;58908;51.426;7.714;2023-10-31T00:26:47;97733.59;;;13.14;100.00
71195;BME280;58908;51.426;7.714;2023-10-31T00:29:13;97737.28;;;13.04;100.00
71195;BME280;58908;51.426;7.714;2023-10-31T00:31:39;97737.34;;;12.77;100.00
71195;BME280;58908;51.426;7.714;2023-10-31T00:34:06;97736.66;;;12.92;100.00
71195;BME280;58908;51.426;7.714;2023-10-31T00:36:32;97748.28;;;12.82;100.00
71195;BME280;58908;51.426;7.714;2023-10-31T00:39:00;97750.94;;;12.82;100.00
71195;BME280;58908;51.426;7.714;2023-10-31T00:41:26;97761.16;;;12.77;100.00
71195;BME280;58908;51.426;7.714;2023-10-31T00:43:52;97757.59;;;12.41;100.00
71195;BME280;58908;51.426;7.714;2023-10-31T00:46:19;97778.84;;;12.22;100.00
71195;BME280;58908;51.426;7.714;2023-10-31T00:48:45;97769.38;;;12.47;100.00
71195;BME280;58908;51.426;7.714;2023-10-31T00:51:11;97776.47;;;12.29;100.00
71195;BME280;58908;51.426;7.714;2023-10-31T00:53:38;97788.25;;;11.98;100.00
71195;BME280;58908;51.426;7.714;2023-10-31T00:56:06;97813.22;;;11.29;100.00
71195;BME280;58908;51.426;7.714;2023-10-31T00:58:32;97815.16;;;11.18;100.00
71195;BME280;58908;51.426;7.714;2023-10-31T01:00:58;97820.53;;;11.16;100.00
71195;BME280;58908;51.426;7.714;2023-10-31T01:03:25;97808.34;;;11.25;100.00
71195;BME280;58908;51.426;7.714;2023-10-31T01:05:51;97818.63;;;11.18;100.00
71195;BME280;58908;51.426;7.714;2023-10-31T01:08:19;97816.81;;;11.09;100.00
71195;BME280;58908;51.426;7.714;2023-10-31T01:10:48;97817.09;;;11.16;100.00
71195;BME280;58908;51.426;7.714;2023-10-31T01:13:16;97817.91;;;11.16;100.00
71195;BME280;58908;51.426;7.714;2023-10-31T01:15:42;97825.41;;;11.11;100.00
71195;BME280;58908;51.426;7.714;2023-10-31T01:18:09;97828.06;;;11.11;100.00
71195;BME280;58908;51.426;7.714;2023-10-31T01:20:35;97840.84;;;11.06;100.00
71195;BME280;58908;51.426;7.714;2023-10-31T01:23:01;97833.63;;;11.37;100.00
71195;BME280;58908;51.426;7.714;2023-10-31T01:25:28;97825.41;;;11.02;100.00
71195;BME280;58908;51.426;7.714;2023-10-31T01:27:54;97830.53;;;11.03;100.00
71195;BME280;58908;51.426;7.714;2023-10-31T01:30:21;97839.72;;;10.90;100.00
71195;BME280;58908;51.426;7.714;2023-10-31T01:32:48;97840.53;;;10.90;100.00
71195;BME280;58908;51.426;7.714;2023-10-31T01:35:16;97840.69;;;10.89;100.00
71195;BME280;58908;51.426;7.714;2023-10-31T01:37:42;97847.47;;;10.91;100.00
71195;BME280;58908;51.426;7.714;2023-10-31T01:40:11;97853.31;;;10.95;100.00
71195;BME280;58908;51.426;7.714;2023-10-31T01:42:38;97860.41;;;10.94;100.00
71195;BME280;58908;51.426;7.714;2023-10-31T01:45:04;97863.03;;;10.94;100.00
71195;BME280;58908;51.426;7.714;2023-10-31T01:47:33;97875.09;;;10.87;100.00
71195;BME280;58908;51.426;7.714;2023-10-31T01:49:59;97874.75;;;10.71;100.00
71195;BME280;58908;51.426;7.714;2023-10-31T01:52:25;97875.19;;;10.67;100.00
71195;BME280;58908;51.426;7.714;2023-10-31T01:54:52;97873.81;;;10.72;100.00
71195;BME280;58908;51.426;7.714;2023-10-31T01:57:18;97872.69;;;10.75;100.00
71195;BME280;58908;51.426;7.714;2023-10-31T01:59:47;97869.75;;;10.68;100.00
71195;BME280;58908;51.426;7.714;2023-10-31T02:02:13;97866.13;;;10.69;100.00
71195;BME280;58908;51.426;7.714;2023-10-31T02:04:41;97881.97;;;10.69;100.00
71195;BME280;58908;51.426;7.714;2023-10-31T02:07:07;97878.09;;;10.73;100.00
71195;BME280;58908;51.426;7.714;2023-10-31T02:09:33;97872.38;;;10.59;100.00
71195;BME280;58908;51.426;7.714;2023-10-31T02:12:00;97863.78;;;10.66;100.00
71195;BME280;58908;51.426;7.714;2023-10-31T02:14:26;97867.19;;;10.87;100.00
71195;BME280;58908;51.426;7.714;2023-10-31T02:16:52;97859.38;;;10.76;100.00
71195;BME280;58908;51.426;7.714;2023-10-31T02:19:19;97868.38;;;10.74;100.00
71195;BME280;58908;51.426;7.714;2023-10-31T02:21:47;97867.28;;;10.67;100.00
71195;BME280;58908;51.426;7.714;2023-10-31T02:24:13;97873.09;;;10.70;100.00
71195;BME280;58908;51.426;7.714;2023-10-31T02:26:40;97866.44;;;10.76;100.00
71195;BME280;58908;51.426;7.714;2023-10-31T02:29:06;97863.38;;;10.61;100.00
71195;BME280;58908;51.426;7.714;2023-10-31T02:31:32;97875.22;;;10.86;100.00
71195;BME280;58908;51.426;7.714;2023-10-31T02:33:59;97880.75;;;10.73;100.00
71195;BME280;58908;51.426;7.714;2023-10-31T02:36:25;97886.31;;;10.80;100.00
71195;BME280;58908;51.426;7.714;2023-10-31T02:38:52;97888.25;;;10.78;100.00
71195;BME280;58908;51.426;7.714;2023-10-31T02:41:19;97909.91;;;10.81;100.00
71195;BME280;58908;51.426;7.714;2023-10-31T02:43:45;97907.66;;;10.77;100.00
71195;BME280;58908;51.426;7.714;2023-10-31T02:46:12;97911.84;;;10.79;100.00
71195;BME280;58908;51.426;7.714;2023-10-31T02:48:39;97918.75;;;10.71;100.00
71195;BME280;58908;51.426;7.714;2023-10-31T02:51:06;97922.38;;;10.70;100.00
71195;BME280;58908;51.426;7.714;2023-10-31T02:53:33;97929.09;;;10.53;100.00
71195;BME280;58908;51.426;7.714;2023-10-31T02:56:01;97932.00;;;10.50;100.00
71195;BME280;58908;51.426;7.714;2023-10-31T02:58:27;97932.50;;;10.44;100.00
71195;BME280;58908;51.426;7.714;2023-10-31T03:00:54;97932.31;;;10.57;100.00
71195;BME280;58908;51.426;7.714;2023-10-31T03:03:23;97931.41;;;10.47;100.00
71195;BME280;58908;51.426;7.714;2023-10-31T03:05:49;97934.19;;;10.45;100.00
71195;BME280;58908;51.426;7.714;2023-10-31T03:08:15;97929.47;;;11.18;100.00
71195;BME280;58908;51.426;7.714;2023-10-31T03:10:45;97938.44;;;10.37;100.00
71195;BME280;58908;51.426;7.714;2023-10-31T03:13:16;97942.16;;;10.34;100.00
71195;BME280;58908;51.426;7.714;2023-10-31T03:15:42;97941.66;;;10.40;100.00
71195;BME280;58908;51.426;7.714;2023-10-31T03:18:08;97938.88;;;10.42;100.00
71195;BME280;58908;51.426;7.714;2023-10-31T03:20:34;97932.78;;;10.41;100.00
71195;BME280;58908;51.426;7.714;2023-10-31T03:23:01;97931.34;;;10.37;100.00
71195;BME280;58908;51.426;7.714;2023-10-31T03:25:27;97930.16;;;10.41;100.00
71195;BME280;58908;51.426;7.714;2023-10-31T03:27:53;97925.25;;;10.37;100.00
71195;BME280;58908;51.426;7.714;2023-10-31T03:30:21;97928.78;;;10.47;100.00
71195;BME280;58908;51.426;7.714;2023-10-31T03:32:47;97925.25;;;10.37;100.00
71195;BME280;58908;51.426;7.714;2023-10-31T03:35:13;97922.94;;;10.43;100.00
71195;BME280;58908;51.426;7.714;2023-10-31T03:37:40;97916.66;;;10.35;100.00
71195;BME280;58908;51.426;7.714;2023-10-31T03:40:07;97931.22;;;10.39;100.00
71195;BME280;58908;51.426;7.714;2023-10-31T03:42:36;97931.81;;;10.42;100.00
71195;BME280;58908;51.426;7.714;2023-10-31T03:45:02;97938.06;;;10.41;100.00
71195;BME280;58908;51.426;7.714;2023-10-31T03:47:33;97944.34;;;10.50;100.00
71195;BME280;58908;51.426;7.714;2023-10-31T03:49:59;97948.91;;;10.48;100.00
71195;BME280;58908;51.426;7.714;2023-10-31T03:52:25;97939.19;;;10.48;100.00
71195;BME280;58908;51.426;7.714;2023-10-31T03:54:52;97950.91;;;10.35;100.00
71195;BME280;58908;51.426;7.714;2023-10-31T03:57:18;97944.84;;;10.44;100.00
71195;BME280;58908;51.426;7.714;2023-10-31T03:59:47;97947.25;;;10.47;100.00
71195;BME280;58908;51.426;7.714;2023-10-31T04:02:13;97956.66;;;10.49;100.00
71195;BME280;58908;51.426;7.714;2023-10-31T04:04:44;97964.63;;;10.59;100.00
71195;BME280;58908;51.426;7.714;2023-10-31T04:07:10;97961.81;;;10.51;100.00
71195;BME280;58908;51.426;7.714;2023-10-31T04:09:37;97969.75;;;10.60;100.00
71195;BME280;58908;51.426;7.714;2023-10-31T04:12:03;97969.91;;;10.59;100.00
71195;BME280;58908;51.426;7.714;2023-10-31T04:14:30;97976.16;;;10.58;100.00
71195;BME280;58908;51.426;7.714;2023-10-31T04:16:56;97979.53;;;10.69;100.00
71195;BME280;58908;51.426;7.714;2023-10-31T04:19:26;97971.38;;;10.72;100.00
71195;BME280;58908;51.426;7.714;2023-10-31T04:21:54;97968.19;;;10.78;100.00
71195;BME280;58908;51.426;7.714;2023-10-31T04:24:20;97974.84;;;10.73;100.00
71195;BME280;58908;51.426;7.714;2023-10-31T04:26:47;97981.59;;;10.66;100.00
71195;BME280;58908;51.426;7.714;2023-10-31T04:29:13;97982.13;;;10.60;100.00
71195;BME280;58908;51.426;7.714;2023-10-31T04:31:39;97982.63;;;10.74;100.00
71195;BME280;58908;51.426;7.714;2023-10-31T04:34:09;97975.03;;;10.60;100.00
71195;BME280;58908;51.426;7.714;2023-10-31T04:36:35;97985.59;;;10.60;100.00
71195;BME280;58908;51.426;7.714;2023-10-31T04:39:03;97991.59;;;10.62;100.00
71195;BME280;58908;51.426;7.714;2023-10-31T04:41:29;97991.13;;;10.57;100.00
71195;BME280;58908;51.426;7.714;2023-10-31T04:43:55;97988.06;;;10.52;100.00
71195;BME280;58908;51.426;7.714;2023-10-31T04:46:22;97992.56;;;10.61;100.00
71195;BME280;58908;51.426;7.714;2023-10-31T04:48:48;97992.88;;;10.47;100.00
71195;BME280;58908;51.426;7.714;2023-10-31T04:51:14;97985.94;;;10.67;100.00
71195;BME280;58908;51.426;7.714;2023-10-31T04:53:41;97991.59;;;10.62;100.00
71195;BME280;58908;51.426;7.714;2023-10-31T04:56:13;97993.56;;;10.49;100.00
71195;BME280;58908;51.426;7.714;2023-10-31T04:58:39;97991.84;;;10.39;100.00
71195;BME280;58908;51.426;7.714;2023-10-31T05:01:07;97998.09;;;10.38;100.00
71195;BME280;58908;51.426;7.714;2023-10-31T05:03:33;97998.91;;;10.59;100.00
71195;BME280;58908;51.426;7.714;2023-10-31T05:06:00;97992.66;;;10.60;100.00
71195;BME280;58908;51.426;7.714;2023-10-31T05:08:26;98002.38;;;10.59;100.00
71195;BME280;58908;51.426;7.714;2023-10-31T05:10:52;98002.44;;;10.48;100.00
71195;BME280;58908;51.426;7.714;2023-10-31T05:13:20;98009.38;;;10.49;100.00
71195;BME280;58908;51.426;7.714;2023-10-31T05:15:46;98006.31;;;10.44;100.00
71195;BME280;58908;51.426;7.714;2023-10-31T05:18:12;98012.78;;;10.61;100.00
71195;BME280;58908;51.426;7.714;2023-10-31T05:20:39;98012.47;;;10.54;100.00
71195;BME280;58908;51.426;7.714;2023-10-31T05:23:05;98015.25;;;10.53;100.00
71195;BME280;58908;51.426;7.714;2023-10-31T05:25:32;98010.81;;;10.53;100.00
71195;BME280;58908;51.426;7.714;2023-10-31T05:27:58;98014.91;;;10.46;100.00
71195;BME280;58908;51.426;7.714;2023-10-31T05:30:26;98017.72;;;10.45;100.00
71195;BME280;58908;51.426;7.714;2023-10-31T05:32:53;98009.06;;;10.43;100.00
71195;BME280;58908;51.426;7.714;2023-10-31T05:35:19;98026.94;;;10.60;100.00
71195;BME280;58908;51.426;7.714;2023-10-31T05:37:45;98025.88;;;10.62;100.00
71195;BME280;58908;51.426;7.714;2023-10-31T05:40:12;98024.63;;;10.66;100.00
71195;BME280;58908;51.426;7.714;2023-10-31T05:42:39;98026.69;;;10.63;100.00
71195;BME280;58908;51.426;7.714;2023-10-31T05:45:05;98038.25;;;10.71;100.00
71195;BME280;58908;51.426;7.714;2023-10-31T05:47:33;98039.09;;;10.72;100.00
71195;BME280;58908;51.426;7.714;2023-10-31T05:49:59;98047.34;;;10.58;100.00
71195;BME280;58908;51.426;7.714;2023-10-31T05:52:27;98049.22;;;10.67;100.00
71195;BME280;58908;51.426;7.714;2023-10-31T05:54:53;98055.31;;;10.67;100.00
71195;BME280;58908;51.426;7.714;2023-10-31T05:57:20;98066.53;;;10.69;100.00
71195;BME280;58908;51.426;7.714;2023-10-31T05:59:46;98072.16;;;10.55;100.00
71195;BME280;58908;51.426;7.714;2023-10-31T06:02:12;98066.50;;;10.60;100.00
71195;BME280;58908;51.426;7.714;2023-10-31T06:04:49;98075.22;;;10.60;100.00
71195;BME280;58908;51.426;7.714;2023-10-31T06:07:15;98082.53;;;10.68;100.00
71195;BME280;58908;51.426;7.714;2023-10-31T06:09:42;98083.03;;;10.62;100.00
71195;BME280;58908;51.426;7.714;2023-10-31T06:12:08;98080.38;;;10.62;100.00
71195;BME280;58908;51.426;7.714;2023-10-31T06:14:38;98088.88;;;10.65;100.00
71195;BME280;58908;51.426;7.714;2023-10-31T06:17:07;98086.81;;;10.69;100.00
71195;BME280;58908;51.426;7.714;2023-10-31T06:19:34;98094.69;;;10.48;100.00
71195;BME280;58908;51.426;7.714;2023-10-31T06:22:01;98101.34;;;10.63;100.00
71195;BME280;58908;51.426;7.714;2023-10-31T06:24:27;98112.06;;;10.51;100.00
71195;BME280;58908;51.426;7.714;2023-10-31T06:26:54;98115.19;;;10.56;100.00
71195;BME280;58908;51.426;7.714;2023-10-31T06:29:20;98114.81;;;10.49;100.00
71195;BME280;58908;51.426;7.714;2023-10-31T06:31:48;98117.81;;;10.56;100.00
71195;BME280;58908;51.426;7.714;2023-10-31T06:34:15;98123.47;;;10.51;100.00
71195;BME280;58908;51.426;7.714;2023-10-31T06:36:44;98126.81;;;10.53;100.00
71195;BME280;58908;51.426;7.714;2023-10-31T06:39:11;98134.03;;;10.51;100.00
71195;BME280;58908;51.426;7.714;2023-10-31T06:41:38;98138.38;;;10.62;100.00
71195;BME280;58908;51.426;7.714;2023-10-31T06:44:04;98138.44;;;10.71;100.00
71195;BME280;58908;51.426;7.714;2023-10-31T06:46:30;98135.97;;;10.70;100.00
71195;BME280;58908;51.426;7.714;2023-10-31T06:49:06;98141.72;;;10.64;100.00
71195;BME280;58908;51.426;7.714;2023-10-31T06:51:32;98150.00;;;10.59;100.00
71195;BME280;58908;51.426;7.714;2023-10-31T06:53:58;98153.34;;;10.72;100.00
71195;BME280;58908;51.426;7.714;2023-10-31T06:56:27;98151.06;;;10.68;100.00
71195;BME280;58908;51.426;7.714;2023-10-31T06:58:54;98150.88;;;10.60;100.00
71195;BME280;58908;51.426;7.714;2023-10-31T07:01:21;98157.84;;;10.50;100.00
71195;BME280;58908;51.426;7.714;2023-10-31T07:03:47;98155.66;;;10.55;100.00
71195;BME280;58908;51.426;7.714;2023-10-31T07:06:14;98161.69;;;10.77;100.00
71195;BME280;58908;51.426;7.714;2023-10-31T07:08:40;98166.94;;;10.57;100.00
71195;BME280;58908;51.426;7.714;2023-10-31T07:11:08;98167.00;;;10.66;100.00
71195;BME280;58908;51.426;7.714;2023-10-31T07:13:35;98167.75;;;10.57;100.00
71195;BME280;58908;51.426;7.714;2023-10-31T07:16:02;98170.69;;;10.75;100.00
71195;BME280;58908;51.426;7.714;2023-10-31T07:18:28;98173.84;;;10.69;100.00
71195;BME280;58908;51.426;7.714;2023-10-31T07:20:54;98176.34;;;10.70;100.00
71195;BME280;58908;51.426;7.714;2023-10-31T07:23:21;98179.00;;;10.91;100.00
71195;BME280;58908;51.426;7.714;2023-10-31T07:25:47;98174.63;;;10.49;100.00
71195;BME280;58908;51.426;7.714;2023-10-31T07:28:16;98184.13;;;10.72;100.00
71195;BME280;58908;51.426;7.714;2023-10-31T07:30:45;98181.28;;;10.64;100.00
71195;BME280;58908;51.426;7.714;2023-10-31T07:33:11;98187.91;;;10.58;100.00
71195;BME280;58908;51.426;7.714;2023-10-31T07:35:37;98186.31;;;10.67;100.00
71195;BME280;58908;51.426;7.714;2023-10-31T07:38:03;98186.50;;;10.75;100.00
71195;BME280;58908;51.426;7.714;2023-10-31T07:40:30;98192.63;;;10.75;100.00
71195;BME280;58908;51.426;7.714;2023-10-31T07:42:56;98200.63;;;10.85;100.00
71195;BME280;58908;51.426;7.714;2023-10-31T07:45:22;98187.63;;;10.72;100.00
71195;BME280;58908;51.426;7.714;2023-10-31T07:47:50;98191.56;;;10.78;100.00
71195;BME280;58908;51.426;7.714;2023-10-31T07:50:16;98183.66;;;10.98;100.00
71195;BME280;58908;51.426;7.714;2023-10-31T07:52:42;98181.22;;;11.06;100.00
71195;BME280;58908;51.426;7.714;2023-10-31T07:55:12;98183.69;;;11.08;100.00
71195;BME280;58908;51.426;7.714;2023-10-31T07:57:39;98185.06;;;11.02;100.00
71195;BME280;58908;51.426;7.714;2023-10-31T08:00:08;98187.69;;;11.02;100.00
71195;BME280;58908;51.426;7.714;2023-10-31T08:02:36;98199.91;;;11.03;100.00
71195;BME280;58908;51.426;7.714;2023-10-31T08:05:05;98196.56;;;11.22;100.00
71195;BME280;58908;51.426;7.714;2023-10-31T08:07:31;98188.66;;;11.01;100.00
71195;BME280;58908;51.426;7.714;2023-10-31T08:09:57;98192.25;;;11.00;100.00
71195;BME280;58908;51.426;7.714;2023-10-31T08:12:24;98202.69;;;11.02;100.00
71195;BME280;58908;51.426;7.714;2023-10-31T08:14:50;98203.94;;;10.87;100.00
71195;BME280;58908;51.426;7.714;2023-10-31T08:17:19;98205.19;;;11.03;100.00
71195;BME280;58908;51.426;7.714;2023-10-31T08:19:45;98214.41;;;11.09;100.00
71195;BME280;58908;51.426;7.714;2023-10-31T08:22:14;98218.97;;;11.07;100.00
71195;BME280;58908;51.426;7.714;2023-10-31T08:24:40;98221.94;;;10.93;100.00
71195;BME280;58908;51.426;7.714;2023-10-31T08:27:06;98225.00;;;10.77;100.00
71195;BME280;58908;51.426;7.714;2023-10-31T08:29:32;98227.66;;;10.98;100.00
71195;BME280;58908;51.426;7.714;2023-10-31T08:31:59;98232.75;;;11.10;100.00
71195;BME280;58908;51.426;7.714;2023-10-31T08:34:25;98222.69;;;11.04;100.00
71195;BME280;58908;51.426;7.714;2023-10-31T08:36:51;98228.19;;;11.12;100.00
71195;BME280;58908;51.426;7.714;2023-10-31T08:39:20;98232.16;;;11.27;100.00
71195;BME280;58908;51.426;7.714;2023-10-31T08:41:50;98236.63;;;11.27;100.00
71195;BME280;58908;51.426;7.714;2023-10-31T08:44:17;98233.66;;;11.20;100.00
71195;BME280;58908;51.426;7.714;2023-10-31T08:46:43;98237.59;;;11.26;100.00
71195;BME280;58908;51.426;7.714;2023-10-31T08:49:09;98242.16;;;11.44;100.00
71195;BME280;58908;51.426;7.714;2023-10-31T08:51:36;98238.44;;;11.97;100.00
71195;BME280;58908;51.426;7.714;2023-10-31T08:54:02;98242.72;;;11.89;100.00
71195;BME280;58908;51.426;7.714;2023-10-31T08:56:30;98237.09;;;12.12;100.00
71195;BME280;58908;51.426;7.714;2023-10-31T08:58:57;98242.94;;;11.76;100.00
71195;BME280;58908;51.426;7.714;2023-10-31T09:01:23;98244.22;;;12.11;100.00
71195;BME280;58908;51.426;7.714;2023-10-31T09:03:50;98244.34;;;12.10;100.00
71195;BME280;58908;51.426;7.714;2023-10-31T09:06:16;98245.09;;;11.92;100.00
71195;BME280;58908;51.426;7.714;2023-10-31T09:08:42;98256.56;;;12.11;100.00
71195;BME280;58908;51.426;7.714;2023-10-31T09:11:09;98254.94;;;12.19;100.00
71195;BME280;58908;51.426;7.714;2023-10-31T09:13:36;98247.16;;;12.18;100.00
71195;BME280;58908;51.426;7.714;2023-10-31T09:16:05;98264.03;;;11.67;100.00
71195;BME280;58908;51.426;7.714;2023-10-31T09:18:37;98278.59;;;11.61;100.00
71195;BME280;58908;51.426;7.714;2023-10-31T09:21:03;98283.38;;;11.56;100.00
71195;BME280;58908;51.426;7.714;2023-10-31T09:23:30;98299.66;;;11.72;100.00
71195;BME280;58908;51.426;7.714;2023-10-31T09:25:56;98291.25;;;12.27;100.00
71195;BME280;58908;51.426;7.714;2023-10-31T09:28:23;98296.16;;;12.31;100.00
71195;BME280;58908;51.426;7.714;2023-10-31T09:30:52;98291.63;;;12.13;100.00
71195;BME280;58908;51.426;7.714;2023-10-31T09:33:20;98296.13;;;11.51;100.00
71195;BME280;58908;51.426;7.714;2023-10-31T09:35:47;98316.66;;;11.59;100.00
71195;BME280;58908;51.426;7.714;2023-10-31T09:38:13;98319.81;;;11.73;100.00
71195;BME280;58908;51.426;7.714;2023-10-31T09:40:39;98319.19;;;11.90;100.00
71195;BME280;58908;51.426;7.714;2023-10-31T09:43:06;98323.47;;;11.82;100.00
71195;BME280;58908;51.426;7.714;2023-10-31T09:45:32;98334.03;;;11.82;100.00
71195;BME280;58908;51.426;7.714;2023-10-31T09:48:00;98338.47;;;11.81;100.00
71195;BME280;58908;51.426;7.714;2023-10-31T09:50:33;98345.19;;;11.85;100.00
71195;BME280;58908;51.426;7.714;2023-10-31T09:52:59;98345.66;;;11.99;100.00
71195;BME280;58908;51.426;7.714;2023-10-31T09:55:26;98344.50;;;11.83;100.00
71195;BME280;58908;51.426;7.714;2023-10-31T09:57:56;98355.06;;;12.13;100.00
71195;BME280;58908;51.426;7.714;2023-10-31T10:00:22;98353.50;;;11.81;100.00
71195;BME280;58908;51.426;7.714;2023-10-31T10:02:49;98348.72;;;11.95;100.00
71195;BME280;58908;51.426;7.714;2023-10-31T10:05:19;98360.38;;;11.93;100.00
71195;BME280;58908;51.426;7.714;2023-10-31T10:07:47;98362.31;;;12.11;100.00
71195;BME280;58908;51.426;7.714;2023-10-31T10:10:13;98361.34;;;12.12;100.00
71195;BME280;58908;51.426;7.714;2023-10-31T10:12:41;98363.53;;;12.07;100.00
71195;BME280;58908;51.426;7.714;2023-10-31T10:15:07;98368.25;;;12.03;100.00
71195;BME280;58908;51.426;7.714;2023-10-31T10:17:34;98367.94;;;12.27;100.00
71195;BME280;58908;51.426;7.714;2023-10-31T10:20:06;98370.66;;;12.36;100.00
71195;BME280;58908;51.426;7.714;2023-10-31T10:22:37;98370.13;;;12.12;100.00
71195;BME280;58908;51.426;7.714;2023-10-31T10:25:05;98373.59;;;12.73;100.00
71195;BME280;58908;51.426;7.714;2023-10-31T10:27:31;98365.19;;;12.58;100.00
71195;BME280;58908;51.426;7.714;2023-10-31T10:33:00;98394.38;;;12.27;100.00
71195;BME280;58908;51.426;7.714;2023-10-31T10:35:27;98394.66;;;12.54;100.00
71195;BME280;58908;51.426;7.714;2023-10-31T10:37:54;98398.28;;;12.53;100.00
71195;BME280;58908;51.426;7.714;2023-10-31T10:40:22;98404.19;;;12.36;100.00
71195;BME280;58908;51.426;7.714;2023-10-31T10:42:49;98408.81;;;12.43;100.00
71195;BME280;58908;51.426;7.714;2023-10-31T10:45:21;98407.75;;;12.25;100.00
71195;BME280;58908;51.426;7.714;2023-10-31T10:47:49;98414.94;;;12.44;100.00
71195;BME280;58908;51.426;7.714;2023-10-31T10:50:16;98419.28;;;12.24;100.00
71195;BME280;58908;51.426;7.714;2023-10-31T10:52:57;98416.09;;;12.51;100.00
71195;BME280;58908;51.426;7.714;2023-10-31T10:55:31;98416.00;;;12.62;100.00
71195;BME280;58908;51.426;7.714;2023-10-31T10:58:03;98425.78;;;12.41;100.00
71195;BME280;58908;51.426;7.714;2023-10-31T11:00:31;98413.38;;;12.41;100.00
71195;BME280;58908;51.426;7.714;2023-10-31T11:02:57;98428.38;;;12.11;100.00
71195;BME280;58908;51.426;7.714;2023-10-31T11:05:23;98428.81;;;12.16;100.00
71195;BME280;58908;51.426;7.714;2023-10-31T11:07:51;98430.84;;;12.23;100.00
71195;BME280;58908;51.426;7.714;2023-10-31T11:10:19;98437.41;;;12.79;100.00
71195;BME280;58908;51.426;7.714;2023-10-31T11:12:46;98431.16;;;12.60;100.00
71195;BME280;58908;51.426;7.714;2023-10-31T11:15:14;98432.41;;;12.56;100.00
71195;BME280;58908;51.426;7.714;2023-10-31T11:17:41;98432.34;;;12.76;100.00
71195;BME280;58908;51.426;7.714;2023-10-31T11:20:09;98424.28;;;12.48;100.00
71195;BME280;58908;51.426;7.714;2023-10-31T11:22:36;98432.88;;;12.61;100.00
71195;BME280;58908;51.426;7.714;2023-10-31T11:25:03;98434.97;;;12.67;100.00
71195;BME280;58908;51.426;7.714;2023-10-31T11:27:30;98428.47;;;12.80;100.00
71195;BME280;58908;51.426;7.714;2023-10-31T11:30:01;98440.91;;;12.59;100.00
71195;BME280;58908;51.426;7.714;2023-10-31T11:32:27;98437.19;;;12.62;100.00
71195;BME280;58908;51.426;7.714;2023-10-31T11:34:53;98442.00;;;12.87;100.00
71195;BME280;58908;51.426;7.714;2023-10-31T11:37:23;98448.34;;;12.04;100.00
71195;BME280;58908;51.426;7.714;2023-10-31T11:42:36;98454.44;;;12.15;100.00
71195;BME280;58908;51.426;7.714;2023-10-31T11:45:04;98452.50;;;12.17;100.00
71195;BME280;58908;51.426;7.714;2023-10-31T11:47:44;98456.34;;;12.34;100.00
71195;BME280;58908;51.426;7.714;2023-10-31T11:50:11;98455.25;;;12.16;100.00
71195;BME280;58908;51.426;7.714;2023-10-31T11:52:37;98450.69;;;12.18;100.00
71195;BME280;58908;51.426;7.714;2023-10-31T11:55:04;98447.25;;;12.47;100.00
71195;BME280;58908;51.426;7.714;2023-10-31T11:57:31;98449.19;;;12.75;100.00
71195;BME280;58908;51.426;7.714;2023-10-31T11:59:57;98447.53;;;12.95;100.00
71195;BME280;58908;51.426;7.714;2023-10-31T12:02:25;98439.25;;;13.37;100.00
71195;BME280;58908;51.426;7.714;2023-10-31T12:05:03;98429.06;;;13.33;100.00
71195;BME280;58908;51.426;7.714;2023-10-31T12:07:40;98440.09;;;13.38;100.00
71195;BME280;58908;51.426;7.714;2023-10-31T12:10:07;98431.69;;;13.14;100.00
71195;BME280;58908;51.426;7.714;2023-10-31T12:12:34;98438.81;;;13.13;100.00
71195;BME280;58908;51.426;7.714;2023-10-31T12:15:04;98443.91;;;13.05;100.00
71195;BME280;58908;51.426;7.714;2023-10-31T12:17:31;98442.41;;;13.12;100.00
71195;BME280;58908;51.426;7.714;2023-10-31T12:19:58;98446.59;;;13.15;100.00
71195;BME280;58908;51.426;7.714;2023-10-31T12:22:29;98446.84;;;13.02;100.00
71195;BME280;58908;51.426;7.714;2023-10-31T12:24:59;98448.22;;;12.97;100.00
71195;BME280;58908;51.426;7.714;2023-10-31T12:27:26;98443.22;;;13.03;100.00
71195;BME280;58908;51.426;7.714;2023-10-31T12:29:59;98442.81;;;13.08;100.00
71195;BME280;58908;51.426;7.714;2023-10-31T12:32:26;98452.75;;;13.25;100.00
71195;BME280;58908;51.426;7.714;2023-10-31T12:34:54;98450.31;;;13.52;100.00
71195;BME280;58908;51.426;7.714;2023-10-31T12:37:20;98438.88;;;13.80;100.00
71195;BME280;58908;51.426;7.714;2023-10-31T12:39:47;98421.00;;;14.10;100.00
71195;BME280;58908;51.426;7.714;2023-10-31T12:42:15;98433.44;;;14.10;100.00
71195;BME280;58908;51.426;7.714;2023-10-31T12:44:41;98426.88;;;14.04;100.00
71195;BME280;58908;51.426;7.714;2023-10-31T12:47:07;98419.06;;;14.03;100.00
71195;BME280;58908;51.426;7.714;2023-10-31T12:49:34;98417.66;;;14.08;100.00
71195;BME280;58908;51.426;7.714;2023-10-31T12:52:02;98419.06;;;14.03;100.00
71195;BME280;58908;51.426;7.714;2023-10-31T12:54:29;98410.72;;;13.79;100.00
71195;BME280;58908;51.426;7.714;2023-10-31T12:56:58;98403.59;;;13.70;100.00